Home > Products > Valid Products > TAF

000
FTUS44 KLIX 232100 AAA
TAFMCB
TAF AMD
KMCB 232100Z 2321/2418 21011G18KT P6SM FEW035
     FM240300 20009KT 5SM BR OVC005
     FM241400 32010G17KT P6SM SKC=



000
FTUS44 KLIX 232000 AAA
TAFMSY
TAF AMD
KMSY 232058Z 2321/2418 22014KT P6SM SCT035 BKN045
     FM240000 19011KT P6SM FEW040
     FM240300 20013KT P6SM SCT005 OVC012
     FM241200 29011KT P6SM SKC=



000
FTUS44 KLIX 231700 RRA
TAFBTR
TAF
KBTR 231753Z 2318/2418 22011G18KT P6SM BKN021 OVC025
     FM232000 22014G21KT P6SM SCT023
     FM240000 21010KT P6SM SCT250
     FM241000 29008KT P6SM SKC=



000
FTUS44 KLIX 231700 RRA
TAFMSY
TAF
KMSY 231753Z 2318/2418 22016G27KT P6SM BKN025
     FM232100 22012KT P6SM SCT025
     FM240400 20013KT P6SM SCT005
     FM241200 29011KT P6SM SKC=



000
FTUS44 KLIX 231700 RRA
TAFMCB
TAF
KMCB 231753Z 2318/2418 21013G22KT P6SM BKN019 OVC025
     FM232200 20012G20KT P6SM SCT022
     FM240400 20009KT 5SM BR SCT250
     FM241400 32010G17KT P6SM SKC=



000
FTUS44 KLIX 231700 RRA
TAFNEW
TAF
KNEW 231753Z 2318/2418 21020KT P6SM BKN025
     FM232100 21020KT P6SM SCT025
     FM240400 22015KT P6SM SCT005
     FM241200 30013KT P6SM SKC=



000
FTUS44 KLIX 231700 RRA
TAFGPT
TAF
KGPT 231753Z 2318/2418 19014G24KT P6SM BKN018
     FM232200 21012KT P6SM SCT022
     FM240300 19007KT 4SM BR OVC004
      TEMPO 2406/2410 1SM BR OVC002
     FM241100 27006KT P6SM SCT007 BKN020
     FM241300 31009G15KT P6SM SKC=



000
FTUS44 KLIX 231700 RRA
TAFNEW
TAF
KNEW 231753Z 2318/2418 21020KT P6SM BKN025
     FM232100 21020KT P6SM SCT025
     FM240400 22015KT P6SM SCT005
     FM241200 30013KT P6SM SKC=



000
FTUS44 KLIX 231500 AAB
TAFGPT
TAF AMD
KGPT 231549Z 2316/2412 22006KT P6SM BKN070
     FM231800 20013G20KT P6SM BKN015
     FM232100 21012KT P6SM SCT022
     FM240300 19007KT 4SM BR OVC004
     FM240900 27006KT 6SM BR BKN020=



000
FTUS44 KLIX 231500 AAB
TAFGPT
TAF AMD
KGPT 231549Z 2316/2412 22006KT P6SM BKN070
     FM231800 20013G20KT P6SM BKN015
     FM232100 21012KT P6SM SCT022
     FM240300 19007KT 4SM BR OVC004
     FM240900 27006KT 6SM BR BKN020=



000
FTUS44 KLIX 231500 AAB
TAFMCB
TAF AMD
KMCB 231537Z 2316/2412 19012G20KT P6SM BKN008 BKN015 BKN110
     FM231630 19013G21KT P6SM BKN012 BKN025
     FM231800 22013KT P6SM SCT025
     FM232200 21011KT P6SM SKC=



000
FTUS44 KLIX 231400 AAC
TAFBTR
TAF AMD
KBTR 231449Z 2315/2412 22015KT P6SM BKN018
     FM231800 22014KT P6SM SCT025
     FM240000 21012KT P6SM SKC=



000
FTUS44 KLIX 231400 AAA
TAFGPT
TAF AMD
KGPT 231438Z 2315/2412 18012KT 6SM -RA BR BKN015
     FM231800 20016KT P6SM BKN015
     FM240000 20008KT P6SM SCT022=



000
FTUS44 KLIX 231400 AAA
TAFMCB
TAF AMD
KMCB 231437Z 2315/2412 14012KT P6SM SCT007 BKN120
     FM231800 22013KT P6SM SCT025
     FM232200 21011KT P6SM SKC=



000
FTUS44 KLIX 231400 AAB
TAFBTR
TAF AMD
KBTR 231436Z 2315/2412 20014KT P6SM BKN025
     FM231800 22014KT P6SM SCT025
     FM240000 21012KT P6SM SKC=



000
FTUS44 KLIX 231300 AAC
TAFMSY
TAF AMD
KMSY 231332Z 2314/2412 20011KT P6SM -RA SCT010 BKN080
     FM231800 22017KT P6SM SCT025
     FM240000 22012KT P6SM SKC=



000
FTUS44 KLIX 231300 AAB
TAFNEW
TAF AMD
KNEW 231331Z 2314/2412 21012KT P6SM -RA SCT019 BKN080
     FM231800 22017KT P6SM SCT025
     FM232200 21015KT P6SM SCT250=



000
FTUS44 KLIX 231200 AAB
TAFMSY
TAF AMD
KMSY 231251Z 2313/2412 14008KT 5SM -RA BR BKN015
      TEMPO 2313/2314 VRB20KT 3SM TSRA BKN005CB
     FM231400 18013KT 3SM -SHRA OVC008
     FM231800 22017KT P6SM SCT025
     FM240000 22012KT P6SM SKC=



000
FTUS44 KLIX 231200 AAA
TAFBTR
TAF AMD
KBTR 231239Z 2313/2412 14009KT 6SM -RA BR SCT004 BKN080
     FM231400 18012KT 3SM -SHRA BKN009
     FM231800 22014KT P6SM SCT025
     FM240000 21012KT P6SM SKC=



000
FTUS44 KLIX 231200 AAA
TAFMSY
TAF AMD
KMSY 231237Z 2313/2412 14008KT 5SM -RA BR SCT006 BKN035
      TEMPO 2313/2314 VRB20KT 3SM TSRA BKN005CB
     FM231400 18013KT 3SM -SHRA OVC008
     FM231800 22017KT P6SM SCT025
     FM240000 22012KT P6SM SKC=



000
FTUS44 KLIX 231200 AAA
TAFNEW
TAF AMD
KNEW 231222Z 2312/2412 10011KT 2SM -RA BR SCT003 OVC011
      TEMPO 2312/2314 VRB20KT 1SM TSRA BKN005 OVC015CB
     FM231400 12015KT 3SM -SHRA OVC008
     FM231800 22017KT P6SM SCT025
     FM232200 21015KT P6SM SCT250=



000
FTUS44 KLIX 231200 AAA
TAFNEW
TAF AMD
KNEW 231222Z 2312/2412 10011KT 2SM -RA BR SCT003 OVC011
      TEMPO 2312/2314 VRB20KT 1SM TSRA BKN005 OVC015CB
     FM231400 12015KT 3SM -SHRA OVC008
     FM231800 22017KT P6SM SCT025
     FM232200 21015KT P6SM SCT250=



000
FTUS44 KLIX 231100
TAFMSY
TAF
KMSY 231140Z 2312/2412 13012KT 5SM -RA BR OVC003
      TEMPO 2312/2314 VRB20KT 3SM TSRA BKN005CB
     FM231400 18013KT 3SM -SHRA OVC008
     FM231800 22017KT P6SM SCT025
     FM240000 22012KT P6SM SKC=



000
FTUS44 KLIX 231100
TAFNEW
TAF
KNEW 231140Z 2312/2412 05011KT 1/4SM -RA FG OVC002
      TEMPO 2312/2314 VRB20KT 1SM TSRA BKN005 OVC015CB
     FM231400 12015KT 3SM -SHRA OVC008
     FM231800 22017KT P6SM SCT025
     FM232200 21015KT P6SM SCT250=



000
FTUS44 KLIX 231100
TAFMCB
TAF
KMCB 231140Z 2312/2412 14008KT 4SM -RA BR OVC004
      TEMPO 2312/2315 3SM RA BR OVC004
     FM231500 18011KT 3SM -SHRA BKN015
     FM231800 22013KT P6SM SCT025
     FM232200 21011KT P6SM SKC=



000
FTUS44 KLIX 231100
TAFNEW
TAF
KNEW 231140Z 2312/2412 05011KT 1/4SM -RA FG OVC002
      TEMPO 2312/2314 VRB20KT 1SM TSRA BKN005 OVC015CB
     FM231400 12015KT 3SM -SHRA OVC008
     FM231800 22017KT P6SM SCT025
     FM232200 21015KT P6SM SCT250=



000
FTUS44 KLIX 231100
TAFBTR
TAF
KBTR 231140Z 2312/2412 14009KT 6SM -RA OVC006
      TEMPO 2312/2314 VRB15KT 3SM TSRA BR BKN008 OVC015CB
     FM231400 18012KT 3SM -SHRA BKN009
     FM231800 22014KT P6SM SCT025
     FM240000 21012KT P6SM SKC=



000
FTUS44 KLIX 231100
TAFGPT
TAF
KGPT 231140Z 2312/2412 12013KT 6SM -RA BR OVC003
      TEMPO 2314/2318 VRB20KT 3SM TSRA BR BKN008 OVC014CB
     FM231800 20016KT P6SM BKN015
     FM240000 20008KT P6SM SCT022=



000
FTUS44 KLIX 231000 AAB
TAFNEW
TAF AMD
KNEW 231042Z 2311/2406 13014KT 2SM -RA BR OVC002
      TEMPO 2311/2314 VRB20KT 3SM TSRA BKN005 OVC015CB
     FM231400 19015KT 3SM -SHRA OVC008
     FM231800 22017KT P6SM SCT025
     FM232100 22015KT P6SM SCT250=



000
FTUS44 KLIX 230900 AAB
TAFMSY
TAF AMD
KMSY 230959Z 2310/2406 13012KT 5SM -RA BR OVC003
      TEMPO 2311/2314 VRB20KT 3SM TSRA BKN005CB
     FM231400 18013KT 3SM -SHRA OVC008
     FM231800 22017KT P6SM SCT025=



000
FTUS44 KLIX 230900 AAB
TAFMSY
TAF AMD
KMSY 230959Z 2310/2406 13012KT 5SM -RA BR OVC003
      TEMPO 2311/2314 VRB20KT 3SM TSRA BKN005CB
     FM231400 18013KT 3SM -SHRA OVC008
     FM231800 22017KT P6SM SCT025=



000
FTUS44 KLIX 230900 AAA
TAFGPT
TAF AMD
KGPT 230958Z 2310/2406 12013KT 6SM -RA BR OVC003
      TEMPO 2312/2315 VRB20KT 3SM TSRA BR BKN008 OVC014CB
     FM231500 17015KT 3SM -SHRA OVC008
     FM231800 20016KT P6SM BKN015
     FM232200 21012KT P6SM SCT022=



000
FTUS44 KLIX 230900 AAA
TAFGPT
TAF AMD
KGPT 230958Z 2310/2406 12013KT 6SM -RA BR OVC003
      TEMPO 2312/2315 VRB20KT 3SM TSRA BR BKN008 OVC014CB
     FM231500 17015KT 3SM -SHRA OVC008
     FM231800 20016KT P6SM BKN015
     FM232200 21012KT P6SM SCT022=



000
FTUS44 KLIX 230900 AAA
TAFMCB
TAF AMD
KMCB 230956Z 2310/2406 14008KT 6SM -RA BR OVC004
      TEMPO 2311/2315 3SM RA BR OVC004
     FM231500 18011KT 3SM -SHRA BKN015
     FM231800 22013KT P6SM SCT025
     FM232000 21011KT P6SM SCT110=



000
FTUS44 KLIX 230900 AAA
TAFMCB
TAF AMD
KMCB 230956Z 2310/2406 14008KT 6SM -RA BR OVC004
      TEMPO 2311/2315 3SM RA BR OVC004
     FM231500 18011KT 3SM -SHRA BKN015
     FM231800 22013KT P6SM SCT025
     FM232000 21011KT P6SM SCT110=



000
FTUS44 KLIX 230900 AAA
TAFBTR
TAF AMD
KBTR 230955Z 2310/2406 14009KT 6SM -RA OVC006
      TEMPO 2311/2314 VRB20KT 3SM TSRA BR BKN008 OVC015CB
     FM231400 18012KT 3SM -SHRA BKN009
     FM231800 22014KT P6SM SCT025
     FM240000 21009KT P6SM SCT250=



000
FTUS44 KLIX 230900 AAA
TAFBTR
TAF AMD
KBTR 230955Z 2310/2406 14009KT 6SM -RA OVC006
      TEMPO 2311/2314 VRB20KT 3SM TSRA BR BKN008 OVC015CB
     FM231400 18012KT 3SM -SHRA BKN009
     FM231800 22014KT P6SM SCT025
     FM240000 21009KT P6SM SCT250=



000
FTUS44 KLIX 230900 AAA
TAFMSY
TAF AMD
KMSY 230949Z 2310/2406 13012KT 6SM -SHRA BR OVC004
      TEMPO 2311/2314 VRB20KT 3SM TSRA BKN006CB
     FM231400 18013KT 3SM -SHRA OVC008
     FM231800 22017KT P6SM SCT025=



000
FTUS44 KLIX 230900 AAA
TAFMSY
TAF AMD
KMSY 230949Z 2310/2406 13012KT 6SM -SHRA BR OVC004
      TEMPO 2311/2314 VRB20KT 3SM TSRA BKN006CB
     FM231400 18013KT 3SM -SHRA OVC008
     FM231800 22017KT P6SM SCT025=



000
FTUS44 KLIX 230900 AAA
TAFNEW
TAF AMD
KNEW 230948Z 2310/2406 13014KT 6SM -SHRA OVC004
      TEMPO 2311/2314 VRB20KT 3SM TSRA BKN008 OVC015CB
     FM231400 19015KT 3SM -SHRA OVC008
     FM231800 22017KT P6SM SCT025
     FM232100 22015KT P6SM SCT250=



000
FTUS44 KLIX 230900 AAA
TAFNEW
TAF AMD
KNEW 230948Z 2310/2406 13014KT 6SM -SHRA OVC004
      TEMPO 2311/2314 VRB20KT 3SM TSRA BKN008 OVC015CB
     FM231400 19015KT 3SM -SHRA OVC008
     FM231800 22017KT P6SM SCT025
     FM232100 22015KT P6SM SCT250=



000
FTUS44 KLIX 230900 AAA
TAFNEW
TAF AMD
KNEW 230948Z 2310/2406 13014KT 6SM -SHRA OVC004
      TEMPO 2311/2314 VRB20KT 3SM TSRA BKN008 OVC015CB
     FM231400 19015KT 3SM -SHRA OVC008
     FM231800 22017KT P6SM SCT025
     FM232100 22015KT P6SM SCT250=



000
FTUS44 KLIX 230900 AAA
TAFNEW
TAF AMD
KNEW 230948Z 2310/2406 13014KT 6SM -SHRA OVC004
      TEMPO 2311/2314 VRB20KT 3SM TSRA BKN008 OVC015CB
     FM231400 19015KT 3SM -SHRA OVC008
     FM231800 22017KT P6SM SCT025
     FM232100 22015KT P6SM SCT250=



000
FTUS44 KLIX 230500
TAFMCB
TAF
KMCB 230525Z 2306/2406 11006KT P6SM VCSH OVC007
     FM230900 14008KT 3SM -SHRA OVC006
      TEMPO 2310/2313 VRB30KT 1 1/2SM TSRA BKN008 OVC015CB
     FM231500 18011KT 3SM -SHRA BKN015
     FM231800 22013KT P6SM SCT025
     FM232000 21011KT P6SM SCT110=



000
FTUS44 KLIX 230500
TAFGPT
TAF
KGPT 230525Z 2306/2406 10009KT P6SM OVC009
     FM231000 12013KT 3SM -SHRA OVC009
      TEMPO 2311/2315 VRB35KT 1SM +TSRA BKN008 OVC014CB
     FM231500 17015KT 3SM -SHRA OVC008
     FM231800 20016KT P6SM BKN015
     FM232200 21012KT P6SM SCT022=



000
FTUS44 KLIX 230500
TAFNEW
TAF
KNEW 230525Z 2306/2406 10015KT P6SM OVC004
     FM230900 13014KT 3SM -SHRA OVC005
      TEMPO 2310/2314 VRB35KT 1SM +TSRA BKN008 OVC015CB
     FM231400 19015KT 3SM -SHRA OVC008
     FM231800 22017KT P6SM SCT025
     FM232100 22015KT P6SM SCT250=



000
FTUS44 KLIX 230500
TAFMSY
TAF
KMSY 230525Z 2306/2406 10011KT 3SM BR OVC003
     FM230900 13012KT 3SM -SHRA OVC004
      TEMPO 2310/2314 VRB35KT 1SM +TSRA BKN006CB
     FM231400 18013KT 3SM -SHRA OVC008
     FM231800 22017KT P6SM SCT025=



000
FTUS44 KLIX 230500
TAFBTR
TAF
KBTR 230525Z 2306/2406 11010KT P6SM VCSH OVC007
     FM230900 14009KT 3SM -SHRA OVC008
      TEMPO 2309/2312 VRB30KT 1SM +TSRA BKN008 OVC015CB
     FM231400 18012KT 3SM -SHRA BKN009
     FM231800 22014KT P6SM SCT025
     FM240000 21009KT P6SM SCT250=



000
FTUS44 KLIX 230400 AAB
TAFMSY
TAF AMD
KMSY 230431Z 2305/2324 10010KT 5SM BR OVC004
     FM230900 14010KT 3SM -SHRA OVC010
      TEMPO 2310/2314 VRB35KT 1SM +TSRA BKN008CB
     FM231400 18013KT 3SM -SHRA OVC015
     FM231800 22017KT P6SM BKN250=



000
FTUS44 KLIX 230200 AAA
TAFMCB
TAF AMD
KMCB 230206Z 2302/2324 11005KT P6SM BKN015
     FM230500 11006KT P6SM OVC008
     FM230900 14008KT 3SM -SHRA OVC015
      TEMPO 2309/2313 VRB35KT 1SM +TSRA BKN008CB
     FM231500 18011KT 3SM -SHRA BKN025
     FM231800 22013KT P6SM BKN110
     FM232000 21013KT P6SM SCT110=



000
FTUS44 KLIX 230200 AAA
TAFNEW
TAF AMD
KNEW 230205Z 2302/2324 10011KT P6SM BKN007
     FM230600 11014KT P6SM VCTS OVC008CB
     FM230900 13014KT 3SM -SHRA OVC010
      TEMPO 2310/2314 VRB35KT 1SM +TSRA BKN008CB
     FM231400 19015KT 3SM -SHRA OVC015
     FM231800 22017KT P6SM BKN090
     FM232100 22017KT P6SM SCT250=



000
FTUS44 KLIX 230200 AAA
TAFNEW
TAF AMD
KNEW 230205Z 2302/2324 10011KT P6SM BKN007
     FM230600 11014KT P6SM VCTS OVC008CB
     FM230900 13014KT 3SM -SHRA OVC010
      TEMPO 2310/2314 VRB35KT 1SM +TSRA BKN008CB
     FM231400 19015KT 3SM -SHRA OVC015
     FM231800 22017KT P6SM BKN090
     FM232100 22017KT P6SM SCT250=



000
FTUS44 KLIX 230200 AAA
TAFGPT
TAF AMD
KGPT 230200Z 2302/2324 08009KT P6SM OVC008
     FM230600 10013KT P6SM VCTS OVC008CB
     FM230900 12013KT 3SM -SHRA OVC010
      TEMPO 2311/2315 VRB35KT 1SM +TSRA BKN008CB
     FM231500 17015KT 3SM -SHRA OVC015
     FM231900 20016KT P6SM BKN090
     FM232200 21012KT P6SM SCT250=



000
FTUS44 KLIX 230200 AAA
TAFMSY
TAF AMD
KMSY 230200Z 2302/2324 10010KT P6SM BKN007
     FM230600 11010KT P6SM VCTS OVC008CB
     FM230900 14010KT 3SM -SHRA OVC010
      TEMPO 2310/2314 VRB35KT 1SM +TSRA BKN008CB
     FM231400 18013KT 3SM -SHRA OVC015
     FM231800 22017KT P6SM BKN250=



000
FTUS44 KLIX 230100 AAA
TAFBTR
TAF AMD
KBTR 230159Z 2302/2324 09010KT P6SM OVC009
     FM230600 11009KT P6SM VCTS OVC010CB
     FM230900 14009KT 3SM -SHRA OVC015
      TEMPO 2309/2312 VRB35KT 1SM +TSRA BKN008CB
     FM231400 18012KT 3SM -SHRA BKN015
     FM231800 22015KT P6SM SCT250=



000
FTUS44 KLIX 222300
TAFMSY
TAF
KMSY 222340Z 2300/2324 10010KT P6SM BKN017
      TEMPO 2300/2303 SCT017 BKN025
     FM230600 11010KT P6SM VCTS OVC015CB
     FM230900 14010KT 3SM -SHRA OVC015
      TEMPO 2310/2314 VRB35KT 1SM +TSRA BKN008CB
     FM231400 18013KT 3SM -SHRA OVC015
     FM231800 22017KT P6SM BKN250=



000
FTUS44 KLIX 222300
TAFMCB
TAF
KMCB 222340Z 2300/2324 12007KT P6SM SCT030 BKN090
     FM230600 12008KT P6SM VCTS OVC015CB
     FM230900 14008KT 3SM -SHRA OVC015
      TEMPO 2309/2313 VRB35KT 1SM +TSRA BKN008CB
     FM231500 18011KT 3SM -SHRA BKN025
     FM231800 22013KT P6SM BKN110
     FM232000 21013KT P6SM SCT110=



000
FTUS44 KLIX 222300
TAFGPT
TAF
KGPT 222340Z 2300/2324 10009KT P6SM SCT015 BKN025
     FM230600 10013KT P6SM VCTS OVC015CB
     FM230900 12013KT 3SM -SHRA OVC015
      TEMPO 2311/2315 VRB35KT 1SM +TSRA BKN008CB
     FM231500 17015KT 3SM -SHRA OVC015
     FM231900 20016KT P6SM BKN090
     FM232200 21012KT P6SM SCT250=



000
FTUS44 KLIX 222300
TAFNEW
TAF
KNEW 222340Z 2300/2324 10011KT P6SM BKN018
      TEMPO 2300/2303 SCT018 BKN025
     FM230600 11014KT P6SM VCTS OVC015CB
     FM230900 13014KT 3SM -SHRA OVC015
      TEMPO 2310/2314 VRB35KT 1SM +TSRA BKN008CB
     FM231400 19015KT 3SM -SHRA OVC015
     FM231800 22017KT P6SM BKN090
     FM232100 22017KT P6SM SCT250=



000
FTUS44 KLIX 222300
TAFNEW
TAF
KNEW 222340Z 2300/2324 10011KT P6SM BKN018
      TEMPO 2300/2303 SCT018 BKN025
     FM230600 11014KT P6SM VCTS OVC015CB
     FM230900 13014KT 3SM -SHRA OVC015
      TEMPO 2310/2314 VRB35KT 1SM +TSRA BKN008CB
     FM231400 19015KT 3SM -SHRA OVC015
     FM231800 22017KT P6SM BKN090
     FM232100 22017KT P6SM SCT250=



000
FTUS44 KLIX 222300
TAFBTR
TAF
KBTR 222340Z 2300/2324 11010KT P6SM SCT018 BKN045
     FM230600 11009KT P6SM VCTS OVC015CB
     FM230900 14009KT 3SM -SHRA OVC015
      TEMPO 2309/2312 VRB35KT 1SM +TSRA BKN008CB
     FM231400 18012KT 3SM -SHRA BKN015
     FM231800 22015KT P6SM SCT250=



000
FTUS44 KLIX 222100 AAA
TAFNEW
TAF AMD
KNEW 222111Z 2221/2318 10012KT P6SM SCT022 OVC200
      TEMPO 2221/2223 BKN021
     FM222300 11010G19KT P6SM SCT013 OVC150
     FM230300 12012KT P6SM VCSH OVC012
     FM230900 15014KT 4SM -RA BR BKN012
      TEMPO 2311/2315 VRB25G40KT 2SM +TSRA OVC008CB=



000
FTUS44 KLIX 222100 AAA
TAFNEW
TAF AMD
KNEW 222111Z 2221/2318 10012KT P6SM SCT022 OVC200
      TEMPO 2221/2223 BKN021
     FM222300 11010G19KT P6SM SCT013 OVC150
     FM230300 12012KT P6SM VCSH OVC012
     FM230900 15014KT 4SM -RA BR BKN012
      TEMPO 2311/2315 VRB25G40KT 2SM +TSRA OVC008CB=



000
FTUS44 KLIX 221900 AAA
TAFMSY
TAF AMD
KMSY 221929Z 2219/2318 10011KT P6SM SCT021 OVC260
      TEMPO 2219/2223 BKN021
     FM222300 11010G19KT P6SM SCT013 OVC150
     FM230300 11011KT P6SM VCSH OVC012
     FM230900 15012G20KT 4SM -RA BR BKN012
      TEMPO 2311/2315 VRB25G40KT 2SM +TSRA OVC008CB=



000
FTUS44 KLIX 221700 RRA
TAFNEW
TAF
KNEW 221754Z 2218/2318 11015KT P6SM SCT035 BKN200
     FM230000 11014G22KT P6SM BKN025 OVC040
     FM230900 15014G22KT 4SM -RA BR BKN020
      TEMPO 2311/2315 VRB25G40KT 2SM +TSRA OVC012CB=



000
FTUS44 KLIX 221700 RRA
TAFNEW
TAF
KNEW 221754Z 2218/2318 11015KT P6SM SCT035 BKN200
     FM230000 11014G22KT P6SM BKN025 OVC040
     FM230900 15014G22KT 4SM -RA BR BKN020
      TEMPO 2311/2315 VRB25G40KT 2SM +TSRA OVC012CB=



000
FTUS44 KLIX 221700 RRA
TAFBTR
TAF
KBTR 221754Z 2218/2318 11013KT P6SM SCT035 BKN200
     FM222300 11009G16KT P6SM SCT020 OVC040
     FM230500 14012G20KT 4SM -RA BR BKN015 OVC030
      TEMPO 2309/2313 VRB25G35KT 2SM +TSRA OVC008CB=



000
FTUS44 KLIX 221700 RRA
TAFMSY
TAF
KMSY 221754Z 2218/2318 11013G19KT P6SM SCT035 BKN200
     FM230000 11010G19KT P6SM BKN025
     FM230900 15012G20KT 4SM -RA BR BKN020
      TEMPO 2311/2315 VRB25G40KT 2SM +TSRA OVC012CB=



000
FTUS44 KLIX 221700 RRA
TAFGPT
TAF
KGPT 221754Z 2218/2318 10019KT P6SM BKN200
     FM230000 10010KT P6SM BKN025
     FM230900 15012G20KT 4SM -RA BR BKN008 OVC020
      TEMPO 2311/2315 VRB25G40KT 2SM +TSRA OVC012CB=



000
FTUS44 KLIX 221700 RRA
TAFMCB
TAF
KMCB 221754Z 2218/2318 13010G15KT P6SM BKN200
     FM230200 14008KT P6SM SCT012 BKN025
     FM230500 14010G18KT 4SM -RA BR BKN015 OVC030
      TEMPO 2309/2313 VRB25G35KT 2SM +TSRA OVC008CB=



000
FTUS44 KLIX 221100 RRA
TAFMCB
TAF
KMCB 221142Z 2212/2312 11006KT P6SM BKN110
     FM221600 13009KT P6SM BKN050
     FM230200 12007KT P6SM BKN025=



000
FTUS44 KLIX 221100 RRA
TAFNEW
TAF
KNEW 221142Z 2212/2312 09009KT P6SM FEW050 SCT120
     FM221600 11016G25KT P6SM BKN050
     FM230000 10014G25KT P6SM VCSH BKN025 OVC040
     FM230830 12016G27KT P6SM VCTS BKN020CB OVC040=



000
FTUS44 KLIX 221100 RRA
TAFBTR
TAF
KBTR 221142Z 2212/2312 10008KT P6SM SCT040 BKN100
     FM221600 12012G22KT P6SM BKN050
     FM222300 11009G16KT P6SM VCSH OVC040
     FM230500 11011G18KT P6SM VCTS BKN020CB OVC035=



000
FTUS44 KLIX 221100 RRA
TAFNEW
TAF
KNEW 221142Z 2212/2312 09009KT P6SM FEW050 SCT120
     FM221600 11016G25KT P6SM BKN050
     FM230000 10014G25KT P6SM VCSH BKN025 OVC040
     FM230830 12016G27KT P6SM VCTS BKN020CB OVC040=



000
FTUS44 KLIX 221100 RRA
TAFGPT
TAF
KGPT 221142Z 2212/2312 06007KT P6SM SCT040 SCT250
     FM221600 10011KT P6SM SCT100
     FM221800 10015KT P6SM BKN050
     FM230000 10010KT P6SM VCTS BKN025CB=



000
FTUS44 KLIX 221100 RRA
TAFMSY
TAF
KMSY 221142Z 2212/2312 09007KT P6SM SCT100
     FM221600 12014G23KT P6SM BKN035
     FM230000 11010G19KT P6SM VCSH BKN025
     FM230800 12016G24KT P6SM VCTS BKN015CB=



000
FTUS44 KLIX 220500
TAFNEW
TAF
KNEW 220520Z 2206/2306 09008KT P6SM SCT100
     FM221800 11016KT P6SM BKN050
     FM230000 10014KT P6SM VCTS BKN025CB=



000
FTUS44 KLIX 220500
TAFMSY
TAF
KMSY 220520Z 2206/2306 09007KT P6SM SCT100
     FM221800 11014KT P6SM BKN050
     FM230000 11010KT P6SM VCTS BKN025CB=



000
FTUS44 KLIX 220500
TAFNEW
TAF
KNEW 220520Z 2206/2306 09008KT P6SM SCT100
     FM221800 11016KT P6SM BKN050
     FM230000 10014KT P6SM VCTS BKN025CB=



000
FTUS44 KLIX 220500
TAFBTR
TAF
KBTR 220520Z 2206/2306 11008KT P6SM BKN100
     FM221800 12011KT P6SM BKN050
     FM222300 11009KT P6SM VCTS OVC025CB=



000
FTUS44 KLIX 220500
TAFMCB
TAF
KMCB 220520Z 2206/2306 14005KT P6SM BKN110
     FM221700 13009KT P6SM BKN050
     FM230200 12007KT P6SM BKN025=



000
FTUS44 KLIX 220500
TAFGPT
TAF
KGPT 220520Z 2206/2306 07005KT P6SM FEW120
     FM221600 10011KT P6SM SCT100
     FM221800 10015KT P6SM BKN050
     FM230000 10010KT P6SM VCTS BKN025CB=



000
FTUS44 KLIX 212300
TAFMSY
TAF
KMSY 212321Z 2200/2224 10010KT P6SM FEW045 SCT250
     FM221800 11014KT P6SM VCTS BKN050CB
     FM222100 11014KT P6SM VCTS BKN025CB=



000
FTUS44 KLIX 212300
TAFGPT
TAF
KGPT 212321Z 2200/2224 11009KT P6SM FEW250
     FM221600 10013KT P6SM SCT250
     FM221800 10015KT P6SM VCTS BKN050CB
     FM222100 10015KT P6SM VCTS BKN025CB=



000
FTUS44 KLIX 212300
TAFBTR
TAF
KBTR 212321Z 2200/2224 11008KT P6SM SCT090 SCT250
     FM221800 12011KT P6SM VCTS BKN050CB=



000
FTUS44 KLIX 212300
TAFNEW
TAF
KNEW 212321Z 2200/2224 10010KT P6SM FEW250
     FM221800 11016KT P6SM VCTS BKN050CB
     FM222100 10016KT P6SM VCTS BKN025CB=



000
FTUS44 KLIX 212300
TAFNEW
TAF
KNEW 212321Z 2200/2224 10010KT P6SM FEW250
     FM221800 11016KT P6SM VCTS BKN050CB
     FM222100 10016KT P6SM VCTS BKN025CB=



000
FTUS44 KLIX 212300
TAFMCB
TAF
KMCB 212321Z 2200/2224 14005KT P6SM SCT250
     FM221700 13009KT P6SM SCT250
     FM221800 13009KT P6SM BKN050=



000
FTUS44 KLIX 211700
TAFNEW
TAF
KNEW 211734Z 2118/2218 12011KT P6SM SKC
     FM221200 09013KT P6SM BKN040
     FM221400 09013KT P6SM BKN020=



000
FTUS44 KLIX 211700
TAFMSY
TAF
KMSY 211734Z 2118/2218 11010G15KT P6SM FEW040 FEW120
     FM220300 09008KT P6SM FEW040
     FM221200 09009KT P6SM BKN040
     FM221400 09012KT P6SM BKN020=



000
FTUS44 KLIX 211700
TAFGPT
TAF
KGPT 211734Z 2118/2218 11012KT P6SM SKC
     FM220300 09010KT P6SM SCT035=



000
FTUS44 KLIX 211700
TAFNEW
TAF
KNEW 211734Z 2118/2218 12011KT P6SM SKC
     FM221200 09013KT P6SM BKN040
     FM221400 09013KT P6SM BKN020=



000
FTUS44 KLIX 211700
TAFBTR
TAF
KBTR 211734Z 2118/2218 12013KT P6SM SKC
     FM220200 11006KT P6SM FEW040
     FM221600 10010KT P6SM SCT040=



000
FTUS44 KLIX 211700
TAFMCB
TAF
KMCB 211734Z 2118/2218 15010KT P6SM SKC
     FM220200 12007KT P6SM SCT040=



000
FTUS44 KLIX 211100 RRA
TAFBTR
TAF
KBTR 211141Z 2112/2212 12004KT P6SM SCT090
     FM211600 12009KT P6SM SCT050 BKN250=



000
FTUS44 KLIX 211100 RRA
TAFNEW
TAF
KNEW 211141Z 2112/2212 15006KT P6SM FEW060
     FM211500 10011KT P6SM SCT050 SCT250=



000
FTUS44 KLIX 211100 RRA
TAFMCB
TAF
KMCB 211141Z 2112/2212 15005KT P6SM SCT090
      TEMPO 2112/2113 5SM BR
     FM211600 13006KT P6SM SCT050 SCT250=



000
FTUS44 KLIX 211100 RRA
TAFMSY
TAF
KMSY 211141Z 2112/2212 14006KT P6SM FEW060
     FM211500 11009KT P6SM SCT050 SCT250=



000
FTUS44 KLIX 211100 RRA
TAFNEW
TAF
KNEW 211141Z 2112/2212 15006KT P6SM FEW060
     FM211500 10011KT P6SM SCT050 SCT250=



000
FTUS44 KLIX 211100 RRA
TAFGPT
TAF
KGPT 211141Z 2112/2212 VRB03KT P6SM FEW250
     FM211500 09011KT P6SM SCT050 SCT250
     FM220300 10007KT P6SM SCT250=



000
FTUS44 KLIX 210500
TAFBTR
TAF
KBTR 210520Z 2106/2206 12004KT P6SM SCT090
     FM211600 12009KT P6SM SCT050 BKN250=



000
FTUS44 KLIX 210500
TAFMSY
TAF
KMSY 210520Z 2106/2206 14006KT P6SM FEW060
     FM211500 11009KT P6SM SCT050 SCT250=



000
FTUS44 KLIX 210500
TAFMCB
TAF
KMCB 210520Z 2106/2206 15005KT P6SM SCT090
      TEMPO 2109/2113 5SM BR
     FM211600 13006KT P6SM SCT050 SCT250=



000
FTUS44 KLIX 210500
TAFNEW
TAF
KNEW 210520Z 2106/2206 15006KT P6SM FEW060
     FM211500 10011KT P6SM SCT050 SCT250=



000
FTUS44 KLIX 210500
TAFNEW
TAF
KNEW 210520Z 2106/2206 15006KT P6SM FEW060
     FM211500 10011KT P6SM SCT050 SCT250=



000
FTUS44 KLIX 210500
TAFGPT
TAF
KGPT 210520Z 2106/2206 VRB03KT P6SM FEW250
     FM211500 09011KT P6SM SCT050 SCT250
     FM220300 10007KT P6SM SCT250=



000
FTUS44 KLIX 202300
TAFGPT
TAF
KGPT 202321Z 2100/2124 14004KT P6SM FEW060
     FM211500 09008KT P6SM SCT250
     FM211800 11012KT P6SM SCT050 SCT250=



000
FTUS44 KLIX 202300
TAFMCB
TAF
KMCB 202321Z 2100/2124 16004KT P6SM SCT070
     FM210900 00000KT P6SM SCT250
      TEMPO 2109/2113 4SM BR
     FM211600 13006KT P6SM SCT050 SCT250=



000
FTUS44 KLIX 202300
TAFBTR
TAF
KBTR 202321Z 2100/2124 14005KT P6SM SCT070
     FM211600 12009KT P6SM SCT050 SCT250=



000
FTUS44 KLIX 202300
TAFNEW
TAF
KNEW 202321Z 2100/2124 13006KT P6SM SCT060
     FM211600 10010KT P6SM SCT050 SCT250=



000
FTUS44 KLIX 202300
TAFNEW
TAF
KNEW 202321Z 2100/2124 13006KT P6SM SCT060
     FM211600 10010KT P6SM SCT050 SCT250=



000
FTUS44 KLIX 202300
TAFMSY
TAF
KMSY 202321Z 2100/2124 16006KT P6SM SCT060
     FM211600 10010KT P6SM SCT050 SCT250=



    US Dept of Commerce
    National Oceanic and Atmospheric Administration
    National Weather Service
    1325 East West Highway
    Silver Spring, MD 20910
    Page Author: NWS Internet Services Team
Disclaimer
Information Quality
Credits
Glossary
Privacy Policy
Freedom of Information Act (FOIA)
About Us
Career Opportunities